Time;durP1;ratioP1;P1;durP2;ratioP2;P2;SDS_P1;SDS_P2;PMS_P1;PMS_P2;Temp;Humidity;BMP_temperature;BMP_pressure;BME280_temperature;BME280_humidity;BME280_pressure;Samples;Min_cycle;Max_cycle;Signal;HPM_P1;HPM_P2
2022/06/08 00:01:01;;;;;;;;;;;19.00;99.90;;;;;;4588879;19;19919;-32
2022/06/08 00:02:32;;;;;;;;;;;19.00;99.90;;;;;;4589528;19;19911;-35
2022/06/08 00:04:03;;;;;;;;;;;19.00;99.90;;;;;;4589737;19;20529;-31
2022/06/08 00:05:34;;;;;;;;;;;19.00;99.90;;;;;;4589686;19;19990;-31
2022/06/08 00:07:05;;;;;;;;;;;19.00;99.90;;;;;;4589306;19;19915;-38
2022/06/08 00:08:36;;;;;;;;;;;19.00;99.90;;;;;;4589328;19;19915;-32
2022/06/08 00:10:07;;;;;;;;;;;19.00;99.90;;;;;;4589333;19;19931;-31
2022/06/08 00:11:38;;;;;;;;;;;19.00;99.90;;;;;;4589225;19;19986;-32
2022/06/08 00:13:09;;;;;;;;;;;19.00;99.90;;;;;;4589177;19;19922;-32
2022/06/08 00:14:41;;;;;;;;;;;19.00;99.90;;;;;;4588559;19;19940;-36
2022/06/08 00:16:13;;;;;;;;;;;19.00;99.90;;;;;;4588996;19;19918;-31
2022/06/08 00:17:44;;;;;;;;;;;18.90;99.90;;;;;;4588059;19;19951;-34
2022/06/08 00:19:15;;;;;;;;;;;18.90;99.90;;;;;;4589972;19;19915;-32
2022/06/08 00:20:46;;;;;;;;;;;18.90;99.90;;;;;;4589102;19;20533;-34
2022/06/08 00:22:17;;;;;;;;;;;18.90;99.90;;;;;;4590274;19;19922;-34
2022/06/08 00:23:48;;;;;;;;;;;18.90;99.90;;;;;;4589144;19;19929;-37
2022/06/08 00:25:20;;;;;;;;;;;18.90;99.90;;;;;;4589665;19;19932;-32
2022/06/08 00:26:51;;;;;;;;;;;18.90;99.90;;;;;;4588820;19;19990;-33
2022/06/08 00:28:21;;;;;;;;;;;18.90;99.90;;;;;;4588524;19;19948;-33
2022/06/08 00:29:53;;;;;;;;;;;18.90;99.90;;;;;;4589197;19;20001;-35
2022/06/08 00:31:24;;;;;;;;;;;18.90;99.90;;;;;;4591031;19;19919;-37
2022/06/08 00:32:55;;;;;;;;;;;18.90;99.90;;;;;;4589236;19;20265;-33
2022/06/08 00:34:26;;;;;;;;;;;18.90;99.90;;;;;;4591879;19;19926;-37
2022/06/08 00:35:57;;;;;;;;;;;18.90;99.90;;;;;;4590103;19;19922;-32
2022/06/08 00:37:28;;;;;;;;;;;18.90;99.90;;;;;;4590788;19;19911;-31
2022/06/08 00:38:59;;;;;;;;;;;18.90;99.90;;;;;;4591336;19;19919;-36
2022/06/08 00:40:50;;;;;;;;;;;18.80;99.90;;;;;;4591472;19;20347;-31
2022/06/08 00:42:21;;;;;;;;;;;18.80;99.90;;;;;;4589553;19;19923;-33
2022/06/08 00:43:52;;;;;;;;;;;18.80;99.90;;;;;;4591808;19;19943;-33
2022/06/08 00:45:23;;;;;;;;;;;18.80;99.90;;;;;;4591341;19;19915;-31
2022/06/08 00:46:54;;;;;;;;;;;18.80;99.90;;;;;;4590046;19;19974;-31
2022/06/08 00:48:26;;;;;;;;;;;18.80;99.90;;;;;;4589523;19;20538;-33
2022/06/08 00:49:57;;;;;;;;;;;18.80;99.90;;;;;;4591040;19;20330;-31
2022/06/08 00:51:28;;;;;;;;;;;18.80;99.90;;;;;;4589751;19;20338;-32
2022/06/08 00:52:59;;;;;;;;;;;18.80;99.90;;;;;;4590284;19;19923;-36
2022/06/08 00:54:35;;;;;;;;;;;18.80;99.90;;;;;;4590822;19;19915;-31
2022/06/08 00:56:07;;;;;;;;;;;18.80;99.90;;;;;;4589840;19;19915;-36
2022/06/08 00:57:39;;;;;;;;;;;16.90;99.90;;;;;;4589855;19;19974;-39
2022/06/08 00:59:10;;;;;;;;;;;16.40;99.90;;;;;;4589792;19;20322;-35
2022/06/08 01:00:41;;;;;;;;;;;16.30;99.90;;;;;;4590293;19;19915;-37
2022/06/08 01:02:12;;;;;;;;;;;16.30;99.90;;;;;;4589951;19;19915;-31
2022/06/08 01:03:43;;;;;;;;;;;16.30;99.90;;;;;;4590541;19;20243;-31
2022/06/08 01:05:28;;;;;;;;;;;16.30;99.90;;;;;;4590772;19;19915;-32
2022/06/08 01:06:59;;;;;;;;;;;16.30;99.90;;;;;;4590477;19;19953;-33
2022/06/08 01:08:31;;;;;;;;;;;16.40;99.90;;;;;;4589520;19;19929;-33
2022/06/08 01:10:02;;;;;;;;;;;16.30;99.90;;;;;;4590727;19;19918;-36
2022/06/08 01:11:38;;;;;;;;;;;16.30;99.90;;;;;;4590442;19;19919;-34
2022/06/08 01:13:09;;;;;;;;;;;16.30;99.90;;;;;;4589548;19;19915;-34
2022/06/08 01:14:40;;;;;;;;;;;16.40;99.90;;;;;;4589885;19;19918;-31
2022/06/08 01:16:11;;;;;;;;;;;16.40;99.90;;;;;;4589421;19;19919;-31
2022/06/08 01:17:42;;;;;;;;;;;16.40;99.90;;;;;;4589261;19;19919;-36
2022/06/08 01:19:16;;;;;;;;;;;16.40;99.90;;;;;;4590379;19;19933;-33
2022/06/08 01:20:51;;;;;;;;;;;16.40;99.90;;;;;;4590863;19;19919;-32
2022/06/08 01:22:23;;;;;;;;;;;16.40;99.90;;;;;;4590363;19;19926;-33
2022/06/08 01:23:54;;;;;;;;;;;16.40;99.90;;;;;;4590440;19;19915;-33
2022/06/08 01:25:27;;;;;;;;;;;16.40;99.90;;;;;;4589638;19;19926;-34
2022/06/08 01:27:02;;;;;;;;;;;16.40;99.90;;;;;;4589624;19;19915;-32
2022/06/08 01:28:42;;;;;;;;;;;16.40;99.90;;;;;;4589056;19;19914;-33
2022/06/08 01:30:13;;;;;;;;;;;16.40;99.90;;;;;;4590197;19;19911;-32
2022/06/08 01:31:49;;;;;;;;;;;16.40;99.90;;;;;;4592728;19;19947;-31
2022/06/08 01:33:24;;;;;;;;;;;16.40;99.90;;;;;;4594670;19;19919;-35
2022/06/08 01:35:10;;;;;;;;;;;16.40;99.90;;;;;;4594977;19;19914;-30
2022/06/08 01:36:48;;;;;;;;;;;16.40;99.90;;;;;;4594635;19;19915;-33
2022/06/08 01:38:25;;;;;;;;;;;16.40;99.90;;;;;;4594679;19;20263;-33
2022/06/08 01:40:02;;;;;;;;;;;16.40;99.90;;;;;;4595008;19;20278;-36
2022/06/08 01:41:51;;;;;;;;;;;16.40;99.90;;;;;;4594886;19;19911;-36
2022/06/08 01:43:28;;;;;;;;;;;16.40;99.90;;;;;;4595308;19;19919;-30
2022/06/08 01:47:00;;;;;;;;;;;16.40;99.90;;;;;;4594799;19;19918;-32
2022/06/08 01:48:33;;;;;;;;;;;16.40;99.90;;;;;;4593668;19;19981;-31
2022/06/08 01:50:12;;;;;;;;;;;16.30;99.90;;;;;;4594517;19;19922;-33
2022/06/08 01:51:47;;;;;;;;;;;16.30;99.90;;;;;;4593891;19;19915;-36
2022/06/08 01:53:24;;;;;;;;;;;16.30;99.90;;;;;;4593977;19;19919;-35
2022/06/08 01:54:58;;;;;;;;;;;16.30;99.90;;;;;;4594454;19;19915;-33
2022/06/08 01:56:48;;;;;;;;;;;16.30;99.90;;;;;;4594546;19;19911;-33
2022/06/08 01:58:31;;;;;;;;;;;16.30;99.90;;;;;;4595021;19;19915;-33
2022/06/08 02:00:06;;;;;;;;;;;16.30;99.90;;;;;;4594958;19;19925;-30
2022/06/08 02:01:42;;;;;;;;;;;16.30;99.90;;;;;;4593846;19;19982;-30
2022/06/08 02:03:16;;;;;;;;;;;16.30;99.90;;;;;;4593291;19;19922;-32
2022/06/08 02:05:03;;;;;;;;;;;16.30;99.90;;;;;;4594177;19;19931;-32
2022/06/08 02:06:54;;;;;;;;;;;16.30;99.90;;;;;;4593209;19;19915;-32
2022/06/08 02:08:43;;;;;;;;;;;16.30;99.90;;;;;;4593778;19;20290;-30
2022/06/08 02:10:33;;;;;;;;;;;16.30;99.90;;;;;;4594006;19;20023;-34
2022/06/08 02:12:05;;;;;;;;;;;16.40;99.90;;;;;;4592511;19;19970;-33
2022/06/08 02:13:36;;;;;;;;;;;16.40;99.90;;;;;;4593155;19;19947;-32
2022/06/08 02:15:09;;;;;;;;;;;16.40;99.90;;;;;;4594041;19;19918;-34
2022/06/08 02:16:40;;;;;;;;;;;16.30;99.90;;;;;;4594572;19;19915;-31
2022/06/08 02:18:12;;;;;;;;;;;16.30;99.90;;;;;;4594037;19;19936;-34
2022/06/08 02:19:44;;;;;;;;;;;16.30;99.90;;;;;;4592975;19;19923;-31
2022/06/08 02:21:17;;;;;;;;;;;16.40;99.90;;;;;;4594030;19;19974;-33
2022/06/08 02:22:49;;;;;;;;;;;16.30;99.90;;;;;;4593265;19;19915;-32
2022/06/08 02:24:20;;;;;;;;;;;16.30;99.90;;;;;;4592733;19;19982;-31
2022/06/08 02:25:56;;;;;;;;;;;16.30;99.90;;;;;;4593763;19;19931;-33
2022/06/08 02:27:36;;;;;;;;;;;16.30;99.90;;;;;;4593117;19;19919;-32
2022/06/08 02:29:14;;;;;;;;;;;16.30;99.90;;;;;;4593055;19;19919;-32
2022/06/08 02:30:47;;;;;;;;;;;16.30;99.90;;;;;;4593431;19;20330;-34
2022/06/08 02:34:29;;;;;;;;;;;16.30;99.90;;;;;;4591195;19;19922;-30
2022/06/08 02:36:02;;;;;;;;;;;16.30;99.90;;;;;;4592234;19;19919;-32
2022/06/08 02:37:33;;;;;;;;;;;16.30;99.90;;;;;;4593802;19;19922;-35
2022/06/08 02:39:22;;;;;;;;;;;16.30;99.90;;;;;;4592449;19;19919;-34
2022/06/08 02:40:55;;;;;;;;;;;16.30;99.90;;;;;;4592559;19;19926;-32
2022/06/08 02:42:27;;;;;;;;;;;16.30;99.90;;;;;;4591839;19;19923;-30
2022/06/08 02:43:59;;;;;;;;;;;16.40;99.90;;;;;;4590756;19;19961;-35
2022/06/08 02:45:43;;;;;;;;;;;16.30;99.90;;;;;;4592822;19;19974;-35
2022/06/08 02:47:16;;;;;;;;;;;16.30;99.90;;;;;;4593456;19;19915;-33
2022/06/08 02:48:47;;;;;;;;;;;16.30;99.90;;;;;;4593786;19;20342;-33
2022/06/08 02:50:20;;;;;;;;;;;16.30;99.90;;;;;;4593434;19;19915;-36
2022/06/08 02:51:52;;;;;;;;;;;16.30;99.90;;;;;;4592878;19;19923;-30
2022/06/08 02:53:22;;;;;;;;;;;16.30;99.90;;;;;;4593441;19;19918;-32
2022/06/08 02:54:53;;;;;;;;;;;16.30;99.90;;;;;;4593326;19;19945;-30
2022/06/08 02:56:30;;;;;;;;;;;16.30;99.90;;;;;;4592277;19;19911;-33
2022/06/08 02:58:02;;;;;;;;;;;16.30;99.90;;;;;;4592596;19;19974;-32
2022/06/08 02:59:42;;;;;;;;;;;16.30;99.90;;;;;;4593168;19;20373;-32
2022/06/08 03:01:23;;;;;;;;;;;16.30;99.90;;;;;;4593274;19;20373;-32
2022/06/08 03:02:56;;;;;;;;;;;16.30;99.90;;;;;;4592302;19;19915;-32
2022/06/08 03:04:29;;;;;;;;;;;16.30;99.90;;;;;;4592450;19;19921;-31
2022/06/08 03:06:04;;;;;;;;;;;16.30;99.90;;;;;;4592020;19;19926;-31
2022/06/08 03:07:38;;;;;;;;;;;16.30;99.90;;;;;;4591117;19;19919;-30
2022/06/08 03:09:10;;;;;;;;;;;16.30;99.90;;;;;;4592882;19;19919;-33
2022/06/08 03:10:41;;;;;;;;;;;16.30;99.90;;;;;;4591789;19;19911;-29
2022/06/08 03:12:17;;;;;;;;;;;16.30;99.90;;;;;;4591347;19;19933;-31
2022/06/08 03:13:58;;;;;;;;;;;16.30;99.90;;;;;;4592749;19;19922;-32
2022/06/08 03:15:29;;;;;;;;;;;16.30;99.90;;;;;;4592322;19;19919;-34
2022/06/08 03:17:01;;;;;;;;;;;16.30;99.90;;;;;;4592374;19;19915;-35
2022/06/08 03:18:32;;;;;;;;;;;16.30;99.90;;;;;;4592948;19;19935;-32
2022/06/08 03:20:04;;;;;;;;;;;16.30;99.90;;;;;;4593069;19;19930;-32
2022/06/08 03:21:36;;;;;;;;;;;16.30;99.90;;;;;;4591620;19;19982;-30
2022/06/08 03:23:07;;;;;;;;;;;16.30;99.90;;;;;;4591279;19;19922;-32
2022/06/08 03:24:38;;;;;;;;;;;16.30;99.90;;;;;;4592425;19;19911;-32
2022/06/08 03:26:09;;;;;;;;;;;16.30;99.90;;;;;;4592000;19;19971;-32
2022/06/08 03:27:42;;;;;;;;;;;16.30;99.90;;;;;;4592656;19;20282;-32
2022/06/08 03:29:13;;;;;;;;;;;16.30;99.90;;;;;;4592313;19;20355;-32
2022/06/08 03:30:44;;;;;;;;;;;16.30;99.90;;;;;;4591252;19;19915;-30
2022/06/08 03:32:15;;;;;;;;;;;16.30;99.90;;;;;;4592193;19;20310;-33
2022/06/08 03:33:46;;;;;;;;;;;16.30;99.90;;;;;;4592423;19;19915;-38
2022/06/08 03:35:17;;;;;;;;;;;16.30;99.90;;;;;;4592510;19;19918;-34
2022/06/08 03:36:48;;;;;;;;;;;16.30;99.90;;;;;;4591104;19;19944;-37
2022/06/08 03:38:19;;;;;;;;;;;16.30;99.90;;;;;;4591677;19;19919;-33
2022/06/08 03:39:51;;;;;;;;;;;16.30;99.90;;;;;;4591829;19;19940;-32
2022/06/08 03:41:21;;;;;;;;;;;16.30;99.90;;;;;;4592204;19;19919;-30
2022/06/08 03:42:53;;;;;;;;;;;16.30;99.90;;;;;;4592390;19;19922;-31
2022/06/08 03:44:23;;;;;;;;;;;16.30;99.90;;;;;;4592838;19;20000;-34
2022/06/08 03:45:56;;;;;;;;;;;16.30;99.90;;;;;;4592085;19;19919;-32
2022/06/08 03:47:28;;;;;;;;;;;16.30;99.90;;;;;;4590808;19;19936;-31
2022/06/08 03:48:58;;;;;;;;;;;16.40;99.90;;;;;;4592072;19;19915;-31
2022/06/08 03:50:29;;;;;;;;;;;16.40;99.90;;;;;;4591119;19;19919;-34
2022/06/08 03:52:01;;;;;;;;;;;16.40;99.90;;;;;;4590675;19;19979;-35
2022/06/08 03:53:36;;;;;;;;;;;16.30;99.90;;;;;;4591808;19;19915;-33
2022/06/08 03:55:07;;;;;;;;;;;16.30;99.90;;;;;;4590274;19;19926;-31
2022/06/08 03:56:38;;;;;;;;;;;16.40;99.90;;;;;;4591262;19;19919;-32
2022/06/08 03:58:09;;;;;;;;;;;16.40;99.90;;;;;;4590439;19;19918;-30
2022/06/08 03:59:40;;;;;;;;;;;16.40;99.90;;;;;;4591940;19;20258;-34
2022/06/08 04:01:11;;;;;;;;;;;16.40;99.90;;;;;;4592151;19;19918;-35
2022/06/08 04:02:42;;;;;;;;;;;16.40;99.90;;;;;;4589537;19;19926;-34
2022/06/08 04:04:15;;;;;;;;;;;16.40;99.90;;;;;;4591366;19;19914;-30
2022/06/08 04:05:46;;;;;;;;;;;16.40;99.90;;;;;;4590934;19;19919;-32
2022/06/08 04:07:17;;;;;;;;;;;16.40;99.90;;;;;;4591015;19;19923;-30
2022/06/08 04:08:58;;;;;;;;;;;16.40;99.90;;;;;;4591685;19;19917;-32
2022/06/08 04:10:29;;;;;;;;;;;16.40;99.90;;;;;;4591914;19;19919;-31
2022/06/08 04:12:00;;;;;;;;;;;16.40;99.90;;;;;;4591758;19;19931;-31
2022/06/08 04:13:31;;;;;;;;;;;16.40;99.90;;;;;;4591889;19;19949;-34
2022/06/08 04:15:02;;;;;;;;;;;16.40;99.90;;;;;;4591501;19;20326;-34
2022/06/08 04:16:33;;;;;;;;;;;16.50;99.90;;;;;;4591662;19;19927;-30
2022/06/08 04:18:04;;;;;;;;;;;16.50;99.90;;;;;;4591645;19;19915;-36
2022/06/08 04:19:35;;;;;;;;;;;16.50;99.90;;;;;;4590496;19;19911;-30
2022/06/08 04:21:07;;;;;;;;;;;16.50;99.90;;;;;;4589078;19;20366;-32
2022/06/08 04:22:38;;;;;;;;;;;16.50;99.90;;;;;;4590895;19;19926;-36
2022/06/08 04:24:10;;;;;;;;;;;16.50;99.90;;;;;;4592033;19;19919;-34
2022/06/08 04:25:41;;;;;;;;;;;16.50;99.90;;;;;;4591262;19;19918;-32
2022/06/08 04:27:12;;;;;;;;;;;16.50;99.90;;;;;;4589979;19;20325;-34
2022/06/08 04:28:43;;;;;;;;;;;16.50;99.90;;;;;;4591513;19;20306;-32
2022/06/08 04:30:14;;;;;;;;;;;16.50;99.90;;;;;;4591514;19;19921;-31
2022/06/08 04:31:45;;;;;;;;;;;16.60;99.90;;;;;;4591199;19;20322;-31
2022/06/08 04:33:16;;;;;;;;;;;16.60;99.90;;;;;;4589195;19;19918;-36
2022/06/08 04:34:47;;;;;;;;;;;16.60;99.90;;;;;;4590773;19;20264;-34
2022/06/08 04:36:18;;;;;;;;;;;16.60;99.90;;;;;;4591810;19;19915;-33
2022/06/08 04:37:49;;;;;;;;;;;16.60;99.90;;;;;;4591187;19;20326;-32
2022/06/08 04:39:20;;;;;;;;;;;16.70;99.90;;;;;;4591337;19;19911;-31
2022/06/08 04:40:51;;;;;;;;;;;16.60;99.90;;;;;;4591714;19;19935;-33
2022/06/08 04:42:22;;;;;;;;;;;16.70;99.90;;;;;;4591062;19;19919;-34
2022/06/08 04:43:53;;;;;;;;;;;16.70;99.90;;;;;;4590984;19;19929;-31
2022/06/08 04:45:24;;;;;;;;;;;16.70;99.90;;;;;;4591635;19;20377;-37
2022/06/08 04:46:55;;;;;;;;;;;16.70;99.90;;;;;;4591652;19;19919;-33
2022/06/08 04:48:26;;;;;;;;;;;16.70;99.90;;;;;;4590835;19;20242;-32
2022/06/08 04:49:57;;;;;;;;;;;16.70;99.90;;;;;;4591166;19;19914;-31
2022/06/08 04:51:28;;;;;;;;;;;16.70;99.90;;;;;;4591212;19;19918;-31
2022/06/08 04:52:59;;;;;;;;;;;16.80;99.90;;;;;;4590460;19;20311;-32
2022/06/08 04:54:30;;;;;;;;;;;16.80;99.90;;;;;;4590676;19;19919;-33
2022/06/08 04:56:01;;;;;;;;;;;16.80;99.90;;;;;;4590945;19;19914;-31
2022/06/08 04:57:36;;;;;;;;;;;16.80;99.90;;;;;;4589700;19;19958;-32
2022/06/08 04:59:08;;;;;;;;;;;16.80;99.90;;;;;;4590904;19;19929;-33
2022/06/08 05:00:39;;;;;;;;;;;16.80;99.90;;;;;;4590436;19;19918;-34
2022/06/08 05:02:10;;;;;;;;;;;16.80;99.90;;;;;;4590516;19;20298;-37
2022/06/08 05:03:42;;;;;;;;;;;16.80;99.90;;;;;;4591408;19;19950;-34
2022/06/08 05:05:22;;;;;;;;;;;16.80;99.90;;;;;;4590669;19;20352;-35
2022/06/08 05:06:53;;;;;;;;;;;16.90;99.90;;;;;;4592036;19;19947;-32
2022/06/08 05:08:24;;;;;;;;;;;16.80;99.90;;;;;;4595949;19;19910;-36
2022/06/08 05:09:55;;;;;;;;;;;16.90;99.90;;;;;;4595771;19;19919;-36
2022/06/08 05:11:27;;;;;;;;;;;16.90;99.90;;;;;;4593560;19;19978;-34
2022/06/08 05:13:02;;;;;;;;;;;16.90;99.90;;;;;;4592299;19;19957;-34
2022/06/08 05:14:33;;;;;;;;;;;16.90;99.90;;;;;;4594062;19;19940;-31
2022/06/08 05:16:04;;;;;;;;;;;16.90;99.90;;;;;;4593967;19;20377;-36
2022/06/08 05:17:36;;;;;;;;;;;16.90;99.90;;;;;;4594756;19;20354;-34
2022/06/08 05:19:07;;;;;;;;;;;16.90;99.90;;;;;;4594086;19;19919;-35
2022/06/08 05:20:39;;;;;;;;;;;17.00;99.90;;;;;;4592583;19;20358;-33
2022/06/08 05:22:11;;;;;;;;;;;17.00;99.90;;;;;;4595035;19;19919;-36
2022/06/08 05:23:50;;;;;;;;;;;17.00;99.90;;;;;;4594772;19;20301;-34
2022/06/08 05:25:29;;;;;;;;;;;17.00;99.90;;;;;;4595323;19;19915;-36
2022/06/08 05:27:00;;;;;;;;;;;17.00;99.90;;;;;;4595701;19;19995;-38
2022/06/08 05:28:31;;;;;;;;;;;17.00;99.90;;;;;;4595402;19;19925;-35
2022/06/08 05:30:03;;;;;;;;;;;17.10;99.90;;;;;;4594321;19;19963;-39
2022/06/08 05:31:35;;;;;;;;;;;17.10;99.90;;;;;;4594131;19;19911;-35
2022/06/08 05:33:07;;;;;;;;;;;17.00;99.90;;;;;;4591074;19;19914;-32
2022/06/08 05:34:41;;;;;;;;;;;17.00;99.90;;;;;;4593554;19;19919;-36
2022/06/08 05:36:17;;;;;;;;;;;17.10;99.90;;;;;;4593276;19;19923;-40
2022/06/08 05:37:54;;;;;;;39.83;36.03;;;17.10;99.90;;;;;;4590624;19;20425;-36
2022/06/08 05:39:26;;;;;;;39.88;35.90;;;17.10;99.90;;;;;;4590840;19;20003;-37
2022/06/08 05:40:58;;;;;;;40.55;36.58;;;17.10;99.90;;;;;;4592057;19;20534;-35
2022/06/08 05:42:31;;;;;;;38.80;35.20;;;17.10;99.90;;;;;;4593009;19;20367;-32
2022/06/08 05:44:02;;;;;;;39.40;35.75;;;17.20;99.90;;;;;;4593981;19;20030;-35
2022/06/08 05:45:33;;;;;;;38.25;34.55;;;17.20;99.90;;;;;;4593718;19;20009;-36
2022/06/08 05:47:04;;;;;;;40.53;36.70;;;17.20;99.90;;;;;;4594014;19;20041;-34
2022/06/08 05:48:36;;;;;;;40.22;36.42;;;17.20;99.90;;;;;;4594016;19;20014;-39
2022/06/08 05:50:07;;;;;;;44.35;40.17;;;17.30;99.90;;;;;;4594019;19;20015;-35
2022/06/08 05:51:38;;;;;;;44.00;39.92;;;17.30;99.90;;;;;;4594174;19;20026;-38
2022/06/08 05:53:09;;;;;;;46.17;41.97;;;17.30;99.90;;;;;;4590839;19;20011;-33
2022/06/08 05:54:41;;;;;;;;;;;17.30;99.90;;;;;;4594054;19;20052;-40
2022/06/08 05:56:12;;;;;;;47.72;43.13;;;17.30;99.90;;;;;;4593659;19;19915;-41
2022/06/08 05:57:43;;;;;;;49.72;44.90;;;17.30;99.90;;;;;;4594592;19;20018;-41
2022/06/08 05:59:14;;;;;;;48.55;43.85;;;17.30;99.90;;;;;;4593352;19;20492;-39
2022/06/08 06:00:45;;;;;;;47.58;43.20;;;17.30;99.90;;;;;;4593545;19;20496;-39
2022/06/08 06:02:16;;;;;;;45.90;41.45;;;17.30;99.90;;;;;;4592865;19;20007;-38
2022/06/08 06:03:47;;;;;;;48.03;43.53;;;17.30;99.90;;;;;;4592267;19;20029;-41
2022/06/08 06:05:21;;;;;;;44.97;40.67;;;17.30;99.90;;;;;;4593064;19;20007;-35
2022/06/08 06:06:52;;;;;;;44.50;40.47;;;17.30;99.90;;;;;;4591785;19;20026;-37
2022/06/08 06:08:23;;;;;;;44.65;40.35;;;17.30;99.90;;;;;;4592809;19;20014;-35
2022/06/08 06:09:54;;;;;;;43.70;39.67;;;17.30;99.90;;;;;;4592205;19;20082;-35
2022/06/08 06:11:26;;;;;;;44.17;40.08;;;17.30;99.90;;;;;;4592871;19;20019;-35
2022/06/08 06:12:57;;;;;;;45.67;41.63;;;17.30;99.90;;;;;;4592638;19;20481;-42
2022/06/08 06:14:28;;;;;;;42.95;38.95;;;17.40;99.90;;;;;;4592000;19;20034;-35
2022/06/08 06:15:59;;;;;;;42.67;38.85;;;17.30;99.90;;;;;;4592541;19;20036;-38
2022/06/08 06:17:30;;;;;;;43.92;39.80;;;17.40;99.90;;;;;;4593098;19;20006;-39
2022/06/08 06:19:01;;;;;;;45.95;41.65;;;17.40;99.90;;;;;;4593582;19;20025;-38
2022/06/08 06:20:33;;;;;;;47.83;43.30;;;17.40;99.90;;;;;;4593669;19;20014;-35
2022/06/08 06:22:04;;;;;;;45.25;41.03;;;17.40;99.90;;;;;;4591915;19;20014;-35
2022/06/08 06:23:35;;;;;;;48.03;43.38;;;17.40;99.90;;;;;;4591767;19;20011;-40
2022/06/08 06:25:07;;;;;;;48.90;44.28;;;17.40;99.90;;;;;;4592926;19;20021;-36
2022/06/08 06:26:38;;;;;;;47.22;43.03;;;17.40;99.90;;;;;;4591671;19;20485;-40
2022/06/08 06:28:09;;;;;;;45.95;41.63;;;17.40;99.90;;;;;;4592595;19;20010;-36
2022/06/08 06:29:40;;;;;;;48.72;44.13;;;17.40;99.90;;;;;;4592999;19;20010;-41
2022/06/08 06:31:17;;;;;;;48.97;44.38;;;17.40;99.90;;;;;;4591783;19;20015;-43
2022/06/08 06:32:48;;;;;;;49.58;44.92;;;17.40;99.90;;;;;;4590571;19;20334;-38
2022/06/08 06:34:22;;;;;;;52.47;47.55;;;17.30;99.90;;;;;;4592145;19;20018;-38
2022/06/08 06:35:53;;;;;;;50.55;45.70;;;17.40;99.90;;;;;;4591593;19;20021;-37
2022/06/08 06:37:24;;;;;;;51.28;46.47;;;17.40;99.90;;;;;;4592412;19;20035;-45
2022/06/08 06:38:55;;;;;;;50.45;45.78;;;17.40;99.90;;;;;;4592550;19;20050;-33
2022/06/08 06:40:26;;;;;;;52.80;47.97;;;17.50;99.90;;;;;;4591590;19;20065;-39
2022/06/08 06:41:59;;;;;;;45.67;41.38;;;17.50;99.90;;;;;;4592519;19;20006;-37
2022/06/08 06:43:31;;;;;;;47.72;43.20;;;17.40;99.90;;;;;;4593018;19;20082;-34
2022/06/08 06:45:02;;;;;;;48.75;44.17;;;17.50;99.90;;;;;;4592555;19;20010;-43
2022/06/08 06:46:33;;;;;;;48.22;43.70;;;17.40;99.90;;;;;;4591601;19;20007;-36
2022/06/08 06:48:05;;;;;;;48.33;43.90;;;17.50;99.90;;;;;;4592433;19;20003;-35
2022/06/08 06:49:37;;;;;;;50.13;45.45;;;17.50;99.90;;;;;;4592534;19;20008;-33
2022/06/08 06:51:09;;;;;;;51.00;46.22;;;17.50;99.90;;;;;;4592304;19;20010;-37
2022/06/08 06:52:40;;;;;;;47.05;42.60;;;17.50;99.90;;;;;;4588921;19;20013;-38
2022/06/08 06:54:12;;;;;;;47.70;43.38;;;17.50;99.90;;;;;;4590106;19;20018;-42
2022/06/08 06:55:43;;;;;;;46.63;42.22;;;17.50;99.90;;;;;;4590080;19;20046;-38
2022/06/08 06:57:14;;;;;;;49.08;44.47;;;17.50;99.90;;;;;;4589652;19;20033;-35
2022/06/08 06:58:48;;;;;;;48.60;44.13;;;17.60;99.90;;;;;;4589969;19;20039;-38
2022/06/08 07:00:19;;;;;;;51.90;47.13;;;17.60;99.90;;;;;;4590185;19;20082;-37
2022/06/08 07:01:51;;;;;;;;;;;17.60;99.90;;;;;;4590239;19;20556;-37
2022/06/08 07:03:22;;;;;;;52.15;47.10;;;17.60;99.90;;;;;;4590071;19;19926;-43
2022/06/08 07:04:53;;;;;;;55.20;49.85;;;17.60;99.90;;;;;;4589966;19;20013;-35
2022/06/08 07:06:24;;;;;;;58.00;52.50;;;17.70;99.90;;;;;;4590040;19;20346;-36
2022/06/08 07:07:56;;;;;;;59.05;53.40;;;17.60;99.90;;;;;;4588515;19;20070;-35
2022/06/08 07:09:27;;;;;;;60.45;54.53;;;17.70;99.90;;;;;;4590020;19;20020;-37
2022/06/08 07:13:05;;;;;;;56.95;51.53;;;17.70;99.90;;;;;;4588460;19;20612;-36
2022/06/08 07:14:36;;;;;;;54.28;49.08;;;17.60;99.90;;;;;;4589676;19;20038;-37
2022/06/08 07:16:07;;;;;;;56.45;50.95;;;17.60;99.90;;;;;;4589696;19;20010;-37
2022/06/08 07:17:39;;;;;;;47.90;43.20;;;17.70;99.90;;;;;;4589744;19;20036;-34
2022/06/08 07:19:11;;;;;;;48.15;43.60;;;17.70;99.90;;;;;;4589510;19;20015;-35
2022/06/08 07:20:41;;;;;;;;;;;17.70;99.90;;;;;;4590552;19;19999;-34
2022/06/08 07:22:13;;;;;;;50.05;45.28;;;17.70;99.90;;;;;;4589269;19;20301;-33
2022/06/08 07:23:44;;;;;;;49.60;44.67;;;17.70;99.90;;;;;;4589446;19;20007;-38
2022/06/08 07:25:15;;;;;;;48.92;44.03;;;17.80;99.90;;;;;;4589779;19;20385;-39
2022/06/08 07:26:47;;;;;;;52.22;46.92;;;17.80;99.90;;;;;;4589189;19;20342;-38
2022/06/08 07:28:18;;;;;;;47.47;42.70;;;17.80;99.90;;;;;;4589478;19;20018;-31
2022/06/08 07:29:49;;;;;;;45.33;40.88;;;17.80;99.90;;;;;;4588233;19;20093;-32
2022/06/08 07:31:22;;;;;;;44.75;40.25;;;17.80;99.90;;;;;;4589546;19;20021;-32
2022/06/08 07:32:53;;;;;;;45.83;41.45;;;17.80;99.90;;;;;;4588513;19;20021;-31
2022/06/08 07:34:24;;;;;;;47.42;42.70;;;17.90;99.90;;;;;;4589105;19;20018;-33
2022/06/08 07:35:55;;;;;;;42.75;38.45;;;17.80;99.90;;;;;;4589286;19;20376;-31
2022/06/08 07:37:27;;;;;;;42.55;38.10;;;17.80;99.90;;;;;;4589283;19;20509;-32
2022/06/08 07:38:58;;;;;;;42.75;38.30;;;17.90;99.90;;;;;;4589554;19;20006;-31
2022/06/08 07:40:29;;;;;;;43.85;39.30;;;17.90;99.90;;;;;;4589194;19;20015;-30
2022/06/08 07:42:00;;;;;;;46.45;41.75;;;17.90;99.90;;;;;;4587393;19;20107;-36
2022/06/08 07:43:31;;;;;;;45.28;40.50;;;17.90;99.90;;;;;;4587058;19;20057;-37
2022/06/08 07:45:05;;;;;;;42.63;38.47;;;17.90;99.90;;;;;;4587844;19;20438;-37
2022/06/08 07:46:37;;;;;;;41.58;37.30;;;18.00;99.90;;;;;;4588712;19;20015;-30
2022/06/08 07:50:37;;;;;;;;;;;18.10;99.90;;;;;;4582921;19;20017;-30
2022/06/08 07:52:15;;;;;;;32.75;29.55;;;18.00;99.90;;;;;;4590605;19;20347;-30
2022/06/08 07:54:04;;;;;;;30.90;27.98;;;18.10;99.90;;;;;;4591244;19;20021;-30
2022/06/08 07:55:35;;;;;;;;;;;18.10;99.90;;;;;;4590592;19;20019;-30
2022/06/08 07:57:06;;;;;;;;;;;18.10;99.90;;;;;;4591327;19;20264;-29
2022/06/08 07:58:37;;;;;;;27.10;24.50;;;18.10;99.90;;;;;;4590127;19;20021;-29
2022/06/08 08:00:10;;;;;;;27.20;24.80;;;18.20;99.90;;;;;;4589957;19;19998;-30
2022/06/08 08:01:41;;;;;;;26.55;24.00;;;18.20;99.90;;;;;;4589860;19;20408;-31
2022/06/08 08:03:16;;;;;;;29.98;27.20;;;18.20;99.90;;;;;;4590681;19;20013;-32
2022/06/08 08:04:47;;;;;;;29.95;27.20;;;18.30;99.90;;;;;;4590136;19;20375;-31
2022/06/08 08:06:18;;;;;;;27.13;24.63;;;18.30;99.90;;;;;;4589595;19;20006;-32
2022/06/08 08:07:50;;;;;;;28.05;25.50;;;18.30;99.90;;;;;;4589545;19;20093;-31
2022/06/08 08:09:22;;;;;;;27.80;25.30;;;18.30;99.90;;;;;;4589590;19;20021;-31
2022/06/08 08:10:53;;;;;;;30.27;27.35;;;18.40;99.90;;;;;;4590951;19;20010;-33
2022/06/08 08:12:46;;;;;;;31.30;28.40;;;18.30;99.90;;;;;;4588282;19;20021;-33
2022/06/08 08:14:18;;;;;;;31.58;28.80;;;18.30;99.90;;;;;;4588173;19;20425;-31
2022/06/08 08:15:51;;;;;;;28.58;26.00;;;18.30;99.90;;;;;;4588290;19;20020;-33
2022/06/08 08:17:23;;;;;;;29.55;26.95;;;18.20;99.90;;;;;;4588922;19;20037;-31
2022/06/08 08:18:54;;;;;;;26.02;23.83;;;18.30;99.90;;;;;;4588301;19;20031;-33
2022/06/08 08:20:28;;;;;;;25.48;23.35;;;18.30;99.90;;;;;;4588565;19;20010;-31
2022/06/08 08:22:00;;;;;;;27.50;25.05;;;18.30;99.90;;;;;;4588545;19;20014;-31
2022/06/08 08:23:30;;;;;;;27.27;24.80;;;18.30;99.90;;;;;;4588854;19;20101;-32
2022/06/08 08:25:02;;;;;;;;;;;18.40;99.90;;;;;;4587678;19;20023;-32
2022/06/08 08:26:33;;;;;;;;;;;18.40;99.90;;;;;;4588386;19;19919;-32
2022/06/08 08:28:04;;;;;;;;;;;18.30;99.90;;;;;;4588188;19;19919;-31
2022/06/08 08:29:35;;;;;;;;;;;18.30;99.90;;;;;;4588472;19;20002;-34
2022/06/08 08:31:06;;;;;;;;;;;18.30;99.90;;;;;;4588722;19;20341;-33
2022/06/08 08:32:37;;;;;;;;;;;18.30;99.90;;;;;;4588904;19;19974;-33
2022/06/08 08:34:08;;;;;;;;;;;18.30;99.90;;;;;;4589495;19;19939;-30
2022/06/08 08:35:39;;;;;;;;;;;18.30;99.90;;;;;;4589173;19;19936;-30
2022/06/08 08:37:10;;;;;;;;;;;18.30;99.90;;;;;;4589179;19;20292;-33
2022/06/08 08:38:41;;;;;;;;;;;18.30;99.90;;;;;;4589352;19;19982;-31
2022/06/08 08:40:24;;;;;;;;;;;18.30;99.90;;;;;;4589188;19;19911;-33
2022/06/08 08:43:44;;;;;;;;;;;18.40;99.90;;;;;;4589004;19;19921;-31
2022/06/08 08:45:15;;;;;;;;;;;18.40;99.90;;;;;;4589593;19;19915;-34
2022/06/08 08:46:50;;;;;;;;;;;18.40;99.90;;;;;;4589410;19;19919;-29
2022/06/08 08:48:26;;;;;;;;;;;18.30;99.90;;;;;;4589378;19;19915;-31